首页
METAR-TAF:

METAR-TAF

机场 :

累西腓/瓜拉拉皮斯-吉尔贝托·弗雷雷国际机场

累西腓, 伯南布哥, 巴西

纬度: 08-08S, 经度: 034-55W, 海拔: 19米

当前天气观测

该预报发布于56分钟前的00:00 UTC
风速5节,风向南转西南
温度 24°C
湿度 69%
气压 1018 hPa
能见度10公里或以上
1500米以下无云,无积雨云

METAR: SBRF 210000Z 20005KT CAVOK 24/18 Q1018

时间: 21:56 (00:56 UTC)

预报

该预报发布于2小时和56分钟前的22:00 UTC
预报有效从21日的 00点(UTC)到 21日的 24点(UTC)
风速5节,风向西南
能見度: 9000
散云层高于2000英尺
短暂存在
从 21日的 05点(UTC)到 21日的 08点(UTC)
能見度: 5000
多云层高于1400英尺
阵雨
成为
从 21日的 11点(UTC)到 21日的 12点(UTC)
风速12节,风向南转南东

TAF: SBRF 202200Z 2100/2124 22005KT 9000 SCT020 TN23/2107Z TX28/2114Z TEMPO 2105/2108 5000 SHRA BKN014 BECMG 2111/2112 15012KT RMK PEA

超过4000个机场的气象观测和天气预报(METAR&TAF报告)。

可查询的气象台以黄色和红色小点在地图上表示。

将鼠标移到小点上方,可查看气象台名称。

然后点击查看天气观测和预报。

如需切换地图:点击带黑十字的绿色按钮放大地图;点击带横线的绿色按钮缩小地图;或者点击绿色箭头查看邻近地区的地图。


METAR-TAF: